createdAt,value
2022-07-29T00:00:47.573Z,20.35
2022-07-29T00:01:47.313Z,20.35
2022-07-29T00:02:47.677Z,20.36
2022-07-29T00:03:47.393Z,20.35
2022-07-29T00:04:47.574Z,20.36
2022-07-29T00:06:09.325Z,20.38
2022-07-29T00:06:47.123Z,20.38
2022-07-29T00:07:47.384Z,20.38
2022-07-29T00:08:47.651Z,20.36
2022-07-29T00:09:52.023Z,20.35
2022-07-29T00:10:48.140Z,20.36
2022-07-29T00:11:47.378Z,20.32
2022-07-29T00:12:47.138Z,20.35
2022-07-29T00:13:50.920Z,20.36
2022-07-29T00:14:47.131Z,20.36
2022-07-29T00:16:09.483Z,20.36
2022-07-29T00:16:46.613Z,20.33
2022-07-29T00:17:47.262Z,20.28
2022-07-29T00:18:46.997Z,20.23
2022-07-29T00:19:47.235Z,20.18
2022-07-29T00:20:46.977Z,20.17
2022-07-29T00:21:47.216Z,20.10
2022-07-29T00:22:46.946Z,20.06
2022-07-29T00:23:47.197Z,20.02
2022-07-29T00:24:46.927Z,19.99
2022-07-29T00:26:07.965Z,19.92
2022-07-29T00:26:47.031Z,19.91
2022-07-29T00:27:47.258Z,19.87
2022-07-29T00:28:47.001Z,19.83
2022-07-29T00:29:47.243Z,19.83
2022-07-29T00:30:47.019Z,19.80
2022-07-29T00:31:47.309Z,19.74
2022-07-29T00:32:46.953Z,19.63
2022-07-29T00:33:47.200Z,19.55
2022-07-29T00:34:46.932Z,19.46
2022-07-29T00:36:09.180Z,19.32
2022-07-29T00:36:46.970Z,19.26
2022-07-29T00:37:47.210Z,19.16
2022-07-29T00:38:46.941Z,19.07
2022-07-29T00:39:47.175Z,18.99
2022-07-29T00:40:46.916Z,18.87
2022-07-29T00:41:47.138Z,18.78
2022-07-29T00:42:46.883Z,18.72
2022-07-29T00:43:47.150Z,18.67
2022-07-29T00:44:46.892Z,18.62
2022-07-29T00:46:09.135Z,18.54
2022-07-29T00:46:46.971Z,18.50
2022-07-29T00:47:47.164Z,18.47
2022-07-29T00:48:49.030Z,18.44
2022-07-29T00:49:47.801Z,18.41
2022-07-29T00:50:49.073Z,18.37
2022-07-29T00:51:48.847Z,18.36
2022-07-29T00:52:47.652Z,18.37
2022-07-29T00:53:49.000Z,18.33
2022-07-29T00:54:48.776Z,18.33
2022-07-29T00:56:07.086Z,18.36
2022-07-29T00:56:48.808Z,18.36
2022-07-29T00:57:48.658Z,18.36
2022-07-29T00:58:48.931Z,18.35
2022-07-29T00:59:48.218Z,18.33
2022-07-29T01:00:49.095Z,18.29
2022-07-29T01:01:47.880Z,18.20
2022-07-29T01:02:48.680Z,18.15
2022-07-29T01:03:48.966Z,18.07
2022-07-29T01:04:47.750Z,17.93
2022-07-29T01:06:06.567Z,17.71
2022-07-29T01:06:48.793Z,17.54
2022-07-29T01:07:47.602Z,17.38
2022-07-29T01:08:48.885Z,17.30
2022-07-29T01:09:48.744Z,17.21
2022-07-29T01:10:48.530Z,17.11
2022-07-29T01:11:48.826Z,17.04
2022-07-29T01:12:47.672Z,17.04
2022-07-29T01:13:48.453Z,17.01
2022-07-29T01:14:48.814Z,17.00
2022-07-29T01:16:06.622Z,16.98
2022-07-29T01:16:48.837Z,17.03
2022-07-29T01:17:53.207Z,17.04
2022-07-29T01:18:47.476Z,17.07
2022-07-29T01:19:48.735Z,17.06
2022-07-29T01:20:48.516Z,17.11
2022-07-29T01:21:48.794Z,17.19
2022-07-29T01:22:48.591Z,17.26
2022-07-29T01:23:48.396Z,17.36
2022-07-29T01:24:47.467Z,17.46
2022-07-29T01:26:06.552Z,17.64
2022-07-29T01:26:48.554Z,17.74
2022-07-29T01:27:48.680Z,17.78
2022-07-29T01:28:48.459Z,17.79
2022-07-29T01:29:48.253Z,17.84
2022-07-29T01:30:47.573Z,17.95
2022-07-29T01:31:58.508Z,17.96
2022-07-29T01:32:49.628Z,17.99
2022-07-29T01:33:48.530Z,17.97
2022-07-29T01:34:48.494Z,17.99
2022-07-29T01:36:06.671Z,17.95
2022-07-29T01:36:48.419Z,17.92
2022-07-29T01:37:47.226Z,17.87
2022-07-29T01:38:48.524Z,17.92
2022-07-29T01:39:48.339Z,17.93
2022-07-29T01:40:48.210Z,17.96
2022-07-29T01:41:47.528Z,17.99
2022-07-29T01:42:48.453Z,17.97
2022-07-29T01:43:48.380Z,17.96
2022-07-29T01:44:48.269Z,17.97
2022-07-29T01:46:06.582Z,17.95
2022-07-29T01:46:47.063Z,17.93
2022-07-29T01:47:47.618Z,17.89
2022-07-29T01:48:48.591Z,17.86
2022-07-29T01:49:48.399Z,17.82
2022-07-29T01:50:48.229Z,17.81
2022-07-29T01:51:48.515Z,17.78
2022-07-29T01:52:47.333Z,17.77
2022-07-29T01:53:48.163Z,17.75
2022-07-29T01:54:48.440Z,17.75
2022-07-29T01:56:06.347Z,17.70
2022-07-29T01:56:48.033Z,17.66
2022-07-29T01:57:47.877Z,17.64
2022-07-29T01:58:47.009Z,17.70
2022-07-29T01:59:48.072Z,17.71
2022-07-29T02:00:48.411Z,17.79
2022-07-29T02:01:48.224Z,17.81
2022-07-29T02:02:46.688Z,17.79
2022-07-29T02:03:47.004Z,17.81
2022-07-29T02:04:47.776Z,17.78
2022-07-29T02:06:06.106Z,17.77
2022-07-29T02:06:47.826Z,17.75
2022-07-29T02:07:48.143Z,17.74
2022-07-29T02:08:47.473Z,17.74
2022-07-29T02:09:47.003Z,17.74
2022-07-29T02:10:48.144Z,17.75
2022-07-29T02:11:47.535Z,17.72
2022-07-29T02:12:50.866Z,17.71
2022-07-29T02:13:48.207Z,17.68
2022-07-29T02:14:47.117Z,17.63
2022-07-29T02:16:06.003Z,17.58
2022-07-29T02:16:48.195Z,17.58
2022-07-29T02:17:47.967Z,17.55
2022-07-29T02:18:47.366Z,17.54
2022-07-29T02:19:48.196Z,17.52
2022-07-29T02:20:47.585Z,17.51
2022-07-29T02:21:46.498Z,17.48
2022-07-29T02:22:47.226Z,17.44
2022-07-29T02:23:50.795Z,17.46
2022-07-29T02:24:47.358Z,17.52
2022-07-29T02:26:06.227Z,17.55
2022-07-29T02:26:47.441Z,17.55
2022-07-29T02:27:46.830Z,17.54
2022-07-29T02:28:47.658Z,17.56
2022-07-29T02:29:48.060Z,17.54
2022-07-29T02:30:47.922Z,17.51
2022-07-29T02:31:47.200Z,17.51
2022-07-29T02:32:47.995Z,17.48
2022-07-29T02:33:46.814Z,17.44
2022-07-29T02:34:47.648Z,17.44
2022-07-29T02:36:05.968Z,17.49
2022-07-29T02:36:49.413Z,17.48
2022-07-29T02:37:47.983Z,17.48
2022-07-29T02:38:47.755Z,17.49
2022-07-29T02:39:45.651Z,17.55
2022-07-29T02:40:47.822Z,17.59
2022-07-29T02:41:47.626Z,17.66
2022-07-29T02:42:47.981Z,17.64
2022-07-29T02:43:47.766Z,17.63
2022-07-29T02:44:47.536Z,17.62
2022-07-29T02:46:05.919Z,17.55
2022-07-29T02:46:48.076Z,17.54
2022-07-29T02:47:47.704Z,17.51
2022-07-29T02:48:47.534Z,17.46
2022-07-29T02:49:47.791Z,17.46
2022-07-29T02:50:47.763Z,17.46
2022-07-29T02:51:46.214Z,17.46
2022-07-29T02:52:47.777Z,17.48
2022-07-29T02:53:47.575Z,17.49
2022-07-29T02:54:47.351Z,17.44
2022-07-29T02:56:05.670Z,17.44
2022-07-29T02:56:47.382Z,17.43
2022-07-29T02:57:54.849Z,17.41
2022-07-29T02:58:48.572Z,17.43
2022-07-29T02:59:47.344Z,17.46
2022-07-29T03:00:47.636Z,17.48
2022-07-29T03:01:47.563Z,17.49
2022-07-29T03:02:47.316Z,17.51
2022-07-29T03:03:46.032Z,17.49
2022-07-29T03:04:47.450Z,17.48
2022-07-29T03:06:05.732Z,17.48
2022-07-29T03:06:47.583Z,17.46
2022-07-29T03:07:47.364Z,17.46
2022-07-29T03:08:46.656Z,17.41
2022-07-29T03:09:47.437Z,17.38
2022-07-29T03:10:47.235Z,17.34
2022-07-29T03:11:50.564Z,17.33
2022-07-29T03:12:47.357Z,17.31
2022-07-29T03:13:47.686Z,17.28
2022-07-29T03:14:46.037Z,17.26
2022-07-29T03:16:05.334Z,17.28
2022-07-29T03:16:47.540Z,17.26
2022-07-29T03:17:47.373Z,17.30
2022-07-29T03:18:47.150Z,17.33
2022-07-29T03:19:46.029Z,17.31
2022-07-29T03:20:46.030Z,17.33
2022-07-29T03:21:47.520Z,17.31
2022-07-29T03:22:47.443Z,17.31
2022-07-29T03:23:47.218Z,17.31
2022-07-29T03:24:47.362Z,17.33
2022-07-29T03:26:05.340Z,17.34
2022-07-29T03:26:47.069Z,17.36
2022-07-29T03:27:47.339Z,17.31
2022-07-29T03:28:47.210Z,17.33
2022-07-29T03:29:49.642Z,17.30
2022-07-29T03:30:47.348Z,17.34
2022-07-29T03:31:47.098Z,17.33
2022-07-29T03:32:47.394Z,17.37
2022-07-29T03:33:47.254Z,17.34
2022-07-29T03:34:45.763Z,17.36
2022-07-29T03:36:05.355Z,17.40
2022-07-29T03:36:46.048Z,17.40
2022-07-29T03:37:46.389Z,17.40
2022-07-29T03:38:46.797Z,17.43
2022-07-29T03:39:47.074Z,17.46
2022-07-29T03:40:46.855Z,17.48
2022-07-29T03:41:47.143Z,17.52
2022-07-29T03:42:45.955Z,17.52
2022-07-29T03:43:49.064Z,17.49
2022-07-29T03:44:47.095Z,17.48
2022-07-29T03:46:04.930Z,17.48
2022-07-29T03:46:47.174Z,17.46
2022-07-29T03:47:50.909Z,17.44
2022-07-29T03:48:47.322Z,17.40
2022-07-29T03:49:45.781Z,17.38
2022-07-29T03:50:46.830Z,17.37
2022-07-29T03:51:47.126Z,17.36
2022-07-29T03:52:46.926Z,17.33
2022-07-29T03:53:45.121Z,17.30
2022-07-29T03:54:47.127Z,17.26
2022-07-29T03:56:04.936Z,17.23
2022-07-29T03:56:47.144Z,17.21
2022-07-29T03:57:46.937Z,17.21
2022-07-29T03:58:46.721Z,17.25
2022-07-29T03:59:47.019Z,17.33
2022-07-29T04:00:45.538Z,17.40
2022-07-29T04:01:46.217Z,17.44
2022-07-29T04:02:46.472Z,17.49
2022-07-29T04:03:46.992Z,17.54
2022-07-29T04:04:46.621Z,17.51
2022-07-29T04:06:04.923Z,17.43
2022-07-29T04:06:46.622Z,17.40
2022-07-29T04:07:45.912Z,17.37
2022-07-29T04:08:44.979Z,17.40
2022-07-29T04:09:46.628Z,17.41
2022-07-29T04:10:46.884Z,17.43
2022-07-29T04:12:02.454Z,17.48
2022-07-29T04:12:46.988Z,17.49
2022-07-29T04:13:45.777Z,17.49
2022-07-29T04:14:46.574Z,17.49
2022-07-29T04:16:05.030Z,17.49
2022-07-29T04:16:46.604Z,17.44
2022-07-29T04:17:46.884Z,17.41
2022-07-29T04:18:45.690Z,17.41
2022-07-29T04:19:46.568Z,17.38
2022-07-29T04:20:46.865Z,17.38
2022-07-29T04:21:46.634Z,17.38
2022-07-29T04:22:45.160Z,17.36
2022-07-29T04:23:52.971Z,17.31
2022-07-29T04:24:47.604Z,17.28
2022-07-29T04:26:04.908Z,17.25
2022-07-29T04:26:46.648Z,17.22
2022-07-29T04:27:46.442Z,17.18
2022-07-29T04:28:46.728Z,17.14
2022-07-29T04:29:57.138Z,17.03
2022-07-29T04:30:46.875Z,16.98
2022-07-29T04:31:46.717Z,16.96
2022-07-29T04:32:46.450Z,16.89
2022-07-29T04:33:45.477Z,16.93
2022-07-29T04:34:46.602Z,16.96
2022-07-29T04:36:04.431Z,16.98
2022-07-29T04:36:46.265Z,17.00
2022-07-29T04:37:46.555Z,17.00
2022-07-29T04:38:46.360Z,16.98
2022-07-29T04:39:46.645Z,16.98
2022-07-29T04:40:44.734Z,16.93
2022-07-29T04:41:45.351Z,16.89
2022-07-29T04:42:47.837Z,16.86
2022-07-29T04:43:46.441Z,16.83
2022-07-29T04:44:46.225Z,16.85
2022-07-29T04:46:04.580Z,16.93
2022-07-29T04:46:46.379Z,16.98
2022-07-29T04:47:45.638Z,17.01
2022-07-29T04:48:45.245Z,17.00
2022-07-29T04:49:46.316Z,17.00
2022-07-29T04:50:46.585Z,17.01
2022-07-29T04:51:46.359Z,17.01
2022-07-29T04:52:46.135Z,16.98
2022-07-29T04:53:46.414Z,16.96
2022-07-29T04:54:46.218Z,17.01
2022-07-29T04:56:04.528Z,17.03
2022-07-29T04:56:46.246Z,17.03
2022-07-29T04:57:46.086Z,16.97
2022-07-29T04:58:45.356Z,16.97
2022-07-29T04:59:46.157Z,16.96
2022-07-29T05:00:45.165Z,16.97
2022-07-29T05:01:46.316Z,17.00
2022-07-29T05:02:46.097Z,17.04
2022-07-29T05:03:45.397Z,17.07
2022-07-29T05:04:45.181Z,17.12
2022-07-29T05:06:04.524Z,17.16
2022-07-29T05:06:46.247Z,17.15
2022-07-29T05:07:46.079Z,17.18
2022-07-29T05:08:48.473Z,17.19
2022-07-29T05:09:45.220Z,17.22
2022-07-29T05:10:45.155Z,17.23
2022-07-29T05:11:44.630Z,17.30
2022-07-29T05:12:46.175Z,17.36
2022-07-29T05:13:45.916Z,17.38
2022-07-29T05:14:44.255Z,17.37
2022-07-29T05:16:04.071Z,17.38
2022-07-29T05:16:44.274Z,17.37
2022-07-29T05:17:43.964Z,17.37
2022-07-29T05:18:44.202Z,17.37
2022-07-29T05:19:43.956Z,17.36
2022-07-29T05:20:44.199Z,17.33
2022-07-29T05:21:43.933Z,17.33
2022-07-29T05:22:44.187Z,17.33
2022-07-29T05:23:43.921Z,17.31
2022-07-29T05:24:44.174Z,17.33
2022-07-29T05:26:03.964Z,17.30
2022-07-29T05:26:46.200Z,17.30
2022-07-29T05:27:43.944Z,17.34
2022-07-29T05:28:44.174Z,17.34
2022-07-29T05:29:45.850Z,17.34
2022-07-29T05:30:44.207Z,17.30
2022-07-29T05:31:43.904Z,17.30
2022-07-29T05:32:44.173Z,17.26
2022-07-29T05:33:43.904Z,17.19
2022-07-29T05:34:51.000Z,17.14
2022-07-29T05:36:06.856Z,17.07
2022-07-29T05:36:43.641Z,17.04
2022-07-29T05:37:43.886Z,17.01
2022-07-29T05:38:43.640Z,16.97
2022-07-29T05:39:48.545Z,16.98
2022-07-29T05:40:44.629Z,16.98
2022-07-29T05:41:46.627Z,17.01
2022-07-29T05:42:44.591Z,17.06
2022-07-29T05:43:43.851Z,17.11
2022-07-29T05:44:43.588Z,17.14
2022-07-29T05:46:04.666Z,17.18
2022-07-29T05:46:43.645Z,17.21
2022-07-29T05:47:43.812Z,17.25
2022-07-29T05:48:43.621Z,17.25
2022-07-29T05:49:43.821Z,17.28
2022-07-29T05:50:44.166Z,17.33
2022-07-29T05:51:43.805Z,17.34
2022-07-29T05:52:43.550Z,17.36
2022-07-29T05:53:43.802Z,17.34
2022-07-29T05:54:43.534Z,17.34
2022-07-29T05:56:03.792Z,17.36
2022-07-29T05:56:43.522Z,17.36
2022-07-29T05:57:43.773Z,17.34
2022-07-29T05:58:43.567Z,17.34
2022-07-29T05:59:43.822Z,17.36
2022-07-29T06:00:43.552Z,17.34
2022-07-29T06:01:43.832Z,17.34
2022-07-29T06:02:43.546Z,17.34
2022-07-29T06:03:43.774Z,17.33
2022-07-29T06:04:43.590Z,17.31
2022-07-29T06:06:03.845Z,17.28
2022-07-29T06:06:43.536Z,17.23
2022-07-29T06:07:50.116Z,17.21
2022-07-29T06:08:45.052Z,17.21
2022-07-29T06:09:43.805Z,17.19
2022-07-29T06:10:43.613Z,17.21
2022-07-29T06:11:45.437Z,17.22
2022-07-29T06:12:43.718Z,17.22
2022-07-29T06:13:43.559Z,17.25
2022-07-29T06:14:43.912Z,17.28
2022-07-29T06:16:03.748Z,17.31
2022-07-29T06:16:43.573Z,17.28
2022-07-29T06:18:00.113Z,17.31
2022-07-29T06:18:44.489Z,17.33
2022-07-29T06:19:43.224Z,17.37
2022-07-29T06:20:45.512Z,17.37
2022-07-29T06:21:43.276Z,17.38
2022-07-29T06:22:43.520Z,17.40
2022-07-29T06:23:43.329Z,17.41
2022-07-29T06:24:43.575Z,17.43
2022-07-29T06:26:03.362Z,17.43
2022-07-29T06:26:43.587Z,17.44
2022-07-29T06:27:43.382Z,17.46
2022-07-29T06:28:43.680Z,17.48
2022-07-29T06:29:45.454Z,17.51
2022-07-29T06:30:43.308Z,17.54
2022-07-29T06:31:44.390Z,17.56
2022-07-29T06:32:43.334Z,17.58
2022-07-29T06:33:42.581Z,17.58
2022-07-29T06:34:42.536Z,17.62
2022-07-29T06:36:02.574Z,17.59
2022-07-29T06:36:42.529Z,17.56
2022-07-29T06:37:42.550Z,17.54
2022-07-29T06:38:49.218Z,17.52
2022-07-29T06:39:43.467Z,17.51
2022-07-29T06:40:42.471Z,17.51
2022-07-29T06:41:42.484Z,17.54
2022-07-29T06:42:42.476Z,17.55
2022-07-29T06:43:51.943Z,17.58
2022-07-29T06:44:43.491Z,17.63
2022-07-29T06:46:02.570Z,17.63
2022-07-29T06:46:42.595Z,17.62
2022-07-29T06:47:43.201Z,17.63
2022-07-29T06:48:42.964Z,17.62
2022-07-29T06:49:43.189Z,17.63
2022-07-29T06:50:42.962Z,17.68
2022-07-29T06:51:43.186Z,17.74
2022-07-29T06:52:43.124Z,17.75
2022-07-29T06:53:59.447Z,17.82
2022-07-29T06:54:44.129Z,17.90
2022-07-29T06:56:02.888Z,18.00
2022-07-29T06:56:43.122Z,18.05
2022-07-29T06:57:42.848Z,18.15
2022-07-29T06:58:43.088Z,18.23
2022-07-29T06:59:42.856Z,18.30
2022-07-29T07:00:43.085Z,18.45
2022-07-29T07:01:42.937Z,18.63
2022-07-29T07:02:43.160Z,18.85
2022-07-29T07:03:42.829Z,19.07
2022-07-29T07:04:43.062Z,19.31
2022-07-29T07:06:02.822Z,19.68
2022-07-29T07:06:43.071Z,19.77
2022-07-29T07:07:42.790Z,19.98
2022-07-29T07:08:43.047Z,20.08
2022-07-29T07:09:43.745Z,20.18
2022-07-29T07:10:43.032Z,20.31
2022-07-29T07:11:42.782Z,20.39
2022-07-29T07:12:43.039Z,20.51
2022-07-29T07:13:42.775Z,20.64
2022-07-29T07:14:43.027Z,20.79
2022-07-29T07:16:02.788Z,20.80
2022-07-29T07:16:43.096Z,20.88
2022-07-29T07:17:42.764Z,20.99
2022-07-29T07:18:43.017Z,21.14
2022-07-29T07:19:42.771Z,21.29
2022-07-29T07:20:42.995Z,21.38
2022-07-29T07:21:42.746Z,21.42
2022-07-29T07:22:42.991Z,21.43
2022-07-29T07:23:42.733Z,21.50
2022-07-29T07:24:42.965Z,21.52
2022-07-29T07:26:02.729Z,21.68
2022-07-29T07:26:42.949Z,21.77
2022-07-29T07:27:42.699Z,21.90
2022-07-29T07:28:42.937Z,21.94
2022-07-29T07:29:44.357Z,22.05
2022-07-29T07:30:44.513Z,22.06
2022-07-29T07:31:44.978Z,21.98
2022-07-29T07:32:44.687Z,21.99
2022-07-29T07:33:44.212Z,22.10
2022-07-29T07:34:44.911Z,22.24
2022-07-29T07:36:02.736Z,22.36
2022-07-29T07:36:44.432Z,22.39
2022-07-29T07:37:44.849Z,22.40
2022-07-29T07:38:44.776Z,22.47
2022-07-29T07:39:44.453Z,22.58
2022-07-29T07:40:44.251Z,22.70
2022-07-29T07:41:46.568Z,22.75
2022-07-29T07:42:44.386Z,22.80
2022-07-29T07:43:44.703Z,22.90
2022-07-29T07:45:10.996Z,23.05
2022-07-29T07:46:02.953Z,23.23
2022-07-29T07:46:44.133Z,23.27
2022-07-29T07:47:44.483Z,23.28
2022-07-29T07:48:44.338Z,23.27
2022-07-29T07:49:44.166Z,23.33
2022-07-29T07:50:43.965Z,23.28
2022-07-29T07:51:44.865Z,23.28
2022-07-29T07:52:45.631Z,23.28
2022-07-29T07:53:44.437Z,23.35
2022-07-29T07:54:42.285Z,23.39
2022-07-29T07:56:11.764Z,23.48
2022-07-29T07:56:43.326Z,23.51
2022-07-29T07:57:42.804Z,23.68
2022-07-29T07:58:42.537Z,23.73
2022-07-29T07:59:42.309Z,23.78
2022-07-29T08:00:42.632Z,23.87
2022-07-29T08:01:47.794Z,23.90
2022-07-29T08:02:43.721Z,23.94
2022-07-29T08:03:42.402Z,23.91
2022-07-29T08:04:42.144Z,23.94
2022-07-29T08:06:04.483Z,23.97
2022-07-29T08:06:42.567Z,23.95
2022-07-29T08:07:42.414Z,23.97
2022-07-29T08:08:42.837Z,24.05
2022-07-29T08:09:44.511Z,24.00
2022-07-29T08:10:42.266Z,24.08
2022-07-29T08:11:52.229Z,24.13
2022-07-29T08:12:43.348Z,24.10
2022-07-29T08:13:42.110Z,24.16
2022-07-29T08:14:44.337Z,24.25
2022-07-29T08:16:04.154Z,24.43
2022-07-29T08:16:42.484Z,24.40
2022-07-29T08:17:42.178Z,24.40
2022-07-29T08:18:42.477Z,24.45
2022-07-29T08:19:42.206Z,24.40
2022-07-29T08:20:42.059Z,24.46
2022-07-29T08:21:42.313Z,24.53
2022-07-29T08:22:42.150Z,24.61
2022-07-29T08:23:47.087Z,24.71
2022-07-29T08:24:43.210Z,24.84
2022-07-29T08:26:02.451Z,24.83
2022-07-29T08:26:43.191Z,24.81
2022-07-29T08:27:43.887Z,24.88
2022-07-29T08:28:42.351Z,25.00
2022-07-29T08:29:42.219Z,25.15
2022-07-29T08:30:41.963Z,25.24
2022-07-29T08:31:42.241Z,25.33
2022-07-29T08:32:57.337Z,25.43
2022-07-29T08:33:45.165Z,25.50
2022-07-29T08:34:42.015Z,25.52
2022-07-29T08:36:03.731Z,25.62
2022-07-29T08:36:42.047Z,25.73
2022-07-29T08:37:41.788Z,25.87
2022-07-29T08:38:42.044Z,25.95
2022-07-29T08:39:41.788Z,25.99
2022-07-29T08:40:42.044Z,25.82
2022-07-29T08:41:44.657Z,25.90
2022-07-29T08:42:45.795Z,26.09
2022-07-29T08:43:42.320Z,26.30
2022-07-29T08:44:41.954Z,26.54
2022-07-29T08:46:03.764Z,26.88
2022-07-29T08:46:42.047Z,27.06
2022-07-29T08:47:41.804Z,27.21
2022-07-29T08:48:42.066Z,27.25
2022-07-29T08:49:41.818Z,27.41
2022-07-29T08:50:42.140Z,27.50
2022-07-29T08:51:49.377Z,27.63
2022-07-29T08:52:44.084Z,27.81
2022-07-29T08:53:41.920Z,27.96
2022-07-29T08:54:43.838Z,27.88
2022-07-29T08:56:03.981Z,28.12
2022-07-29T08:56:41.772Z,28.25
2022-07-29T08:57:51.905Z,28.37
2022-07-29T08:58:42.848Z,28.68
2022-07-29T08:59:41.554Z,28.89
2022-07-29T09:00:41.856Z,29.26
2022-07-29T09:01:42.814Z,29.57
2022-07-29T09:02:41.821Z,29.73
2022-07-29T09:03:41.671Z,29.95
2022-07-29T09:04:42.757Z,30.15
2022-07-29T09:06:01.588Z,30.38
2022-07-29T09:06:41.803Z,30.38
2022-07-29T09:07:41.552Z,30.31
2022-07-29T09:08:41.791Z,30.49
2022-07-29T09:09:41.532Z,30.47
2022-07-29T09:10:41.781Z,30.60
2022-07-29T09:11:41.511Z,30.61
2022-07-29T09:12:41.763Z,30.62
2022-07-29T09:13:41.509Z,30.72
2022-07-29T09:14:41.738Z,30.92
2022-07-29T09:16:05.668Z,31.20
2022-07-29T09:16:52.738Z,31.19
2022-07-29T09:17:42.603Z,31.09
2022-07-29T09:18:43.794Z,31.13
2022-07-29T09:19:45.349Z,31.21
2022-07-29T09:20:43.435Z,31.36
2022-07-29T09:21:42.356Z,31.50
2022-07-29T09:22:43.587Z,31.54
2022-07-29T09:23:43.388Z,31.69
2022-07-29T09:24:45.735Z,31.76
2022-07-29T09:26:01.580Z,31.81
2022-07-29T09:26:42.371Z,31.89
2022-07-29T09:27:42.687Z,32.14
2022-07-29T09:28:42.178Z,32.29
2022-07-29T09:29:43.281Z,32.18
2022-07-29T09:30:43.100Z,32.08
2022-07-29T09:31:42.662Z,32.19
2022-07-29T09:32:45.710Z,32.19
2022-07-29T09:33:42.703Z,32.13
2022-07-29T09:34:43.431Z,32.32
2022-07-29T09:36:01.804Z,32.56
2022-07-29T09:36:43.044Z,32.52
2022-07-29T09:37:43.372Z,32.70
2022-07-29T09:38:43.203Z,32.94
2022-07-29T09:39:43.542Z,33.11
2022-07-29T09:40:42.062Z,33.31
2022-07-29T09:41:42.692Z,33.22
2022-07-29T09:42:43.490Z,33.45
2022-07-29T09:43:42.341Z,33.54
2022-07-29T09:44:41.789Z,33.79
2022-07-29T09:46:01.723Z,34.02
2022-07-29T09:46:42.907Z,34.24
2022-07-29T09:47:43.270Z,34.39
2022-07-29T09:48:43.135Z,34.69
2022-07-29T09:49:43.492Z,34.65
2022-07-29T09:50:42.351Z,34.52
2022-07-29T09:51:43.196Z,34.35
2022-07-29T09:52:41.744Z,34.12
2022-07-29T09:53:43.398Z,34.31
2022-07-29T09:54:42.695Z,34.61
2022-07-29T09:56:01.538Z,34.92
2022-07-29T09:56:42.748Z,35.03
2022-07-29T09:57:43.227Z,34.75
2022-07-29T09:58:42.913Z,34.78
2022-07-29T09:59:50.272Z,34.89
2022-07-29T10:00:44.057Z,35.06
2022-07-29T10:01:41.826Z,35.19
2022-07-29T10:02:43.275Z,35.03
2022-07-29T10:03:43.130Z,35.19
2022-07-29T10:04:42.923Z,35.45
2022-07-29T10:06:01.296Z,35.65
2022-07-29T10:06:42.557Z,35.47
2022-07-29T10:07:42.318Z,35.23
2022-07-29T10:08:44.106Z,35.31
2022-07-29T10:09:43.008Z,35.43
2022-07-29T10:10:42.345Z,35.50
2022-07-29T10:11:49.228Z,35.56
2022-07-29T10:12:43.542Z,35.65
2022-07-29T10:13:42.383Z,35.75
2022-07-29T10:14:43.147Z,35.84
2022-07-29T10:16:01.081Z,35.93
2022-07-29T10:16:42.907Z,35.92
2022-07-29T10:17:42.696Z,35.75
2022-07-29T10:18:42.498Z,35.62
2022-07-29T10:19:42.935Z,35.63
2022-07-29T10:20:43.122Z,35.81
2022-07-29T10:21:43.060Z,36.13
2022-07-29T10:22:52.877Z,36.44
2022-07-29T10:23:47.022Z,36.69
2022-07-29T10:24:41.697Z,36.76
2022-07-29T10:26:00.211Z,36.56
2022-07-29T10:26:40.440Z,36.50
2022-07-29T10:27:42.526Z,36.56
2022-07-29T10:28:42.381Z,36.56
2022-07-29T10:29:41.805Z,36.46
2022-07-29T10:30:43.028Z,36.51
2022-07-29T10:31:44.110Z,36.76
2022-07-29T10:32:42.724Z,36.64
2022-07-29T10:33:43.068Z,36.34
2022-07-29T10:34:41.896Z,36.13
2022-07-29T10:36:00.718Z,36.09
2022-07-29T10:36:41.658Z,36.23
2022-07-29T10:37:45.914Z,36.41
2022-07-29T10:38:46.091Z,36.28
2022-07-29T10:39:48.979Z,36.41
2022-07-29T10:40:43.916Z,36.39
2022-07-29T10:41:44.234Z,36.49
2022-07-29T10:42:42.506Z,36.56
2022-07-29T10:43:42.525Z,36.87
2022-07-29T10:44:42.721Z,37.02
2022-07-29T10:46:01.126Z,36.64
2022-07-29T10:46:42.882Z,36.64
2022-07-29T10:47:41.076Z,36.62
2022-07-29T10:48:41.778Z,35.90
2022-07-29T10:49:42.704Z,35.75
2022-07-29T10:50:43.988Z,35.94
2022-07-29T10:51:42.008Z,36.00
2022-07-29T10:52:42.744Z,35.87
2022-07-29T10:53:42.497Z,35.94
2022-07-29T10:54:43.765Z,36.08
2022-07-29T10:56:00.607Z,36.23
2022-07-29T10:56:41.327Z,36.35
2022-07-29T10:57:53.569Z,36.31
2022-07-29T10:58:43.489Z,35.90
2022-07-29T10:59:43.854Z,35.68
2022-07-29T11:00:42.641Z,35.81
2022-07-29T11:01:46.407Z,36.01
2022-07-29T11:02:43.807Z,36.27
2022-07-29T11:03:41.329Z,36.22
2022-07-29T11:04:43.392Z,36.07
2022-07-29T11:06:00.730Z,36.43
2022-07-29T11:06:42.815Z,36.51
2022-07-29T11:07:46.456Z,36.53
2022-07-29T11:08:41.651Z,36.49
2022-07-29T11:09:42.439Z,36.46
2022-07-29T11:10:42.222Z,36.54
2022-07-29T11:11:44.032Z,36.66
2022-07-29T11:12:43.369Z,37.00
2022-07-29T11:13:41.728Z,37.36
2022-07-29T11:14:42.513Z,37.51
2022-07-29T11:16:01.036Z,37.85
2022-07-29T11:16:40.189Z,37.74
2022-07-29T11:17:47.057Z,37.50
2022-07-29T11:18:41.202Z,37.67
2022-07-29T11:19:40.439Z,37.51
2022-07-29T11:20:40.181Z,37.47
2022-07-29T11:22:43.022Z,36.76
2022-07-29T11:23:42.872Z,36.07
2022-07-29T11:24:50.145Z,35.47
2022-07-29T11:26:02.290Z,34.85
2022-07-29T11:26:40.089Z,34.59
2022-07-29T11:27:40.401Z,34.19
2022-07-29T11:28:40.092Z,33.91
2022-07-29T11:29:40.331Z,33.71
2022-07-29T11:30:40.080Z,33.35
2022-07-29T11:31:40.348Z,33.00
2022-07-29T11:32:40.079Z,32.63
2022-07-29T11:33:56.125Z,32.56
2022-07-29T11:34:41.074Z,32.52
2022-07-29T11:36:03.311Z,32.32
2022-07-29T11:36:40.101Z,32.18
2022-07-29T11:37:42.633Z,32.01
2022-07-29T11:38:41.635Z,31.92
2022-07-29T11:39:40.327Z,31.85
2022-07-29T11:40:40.076Z,31.84
2022-07-29T11:41:40.318Z,31.63
2022-07-29T11:42:41.824Z,31.41
2022-07-29T11:43:40.314Z,31.09
2022-07-29T11:44:40.066Z,30.92
2022-07-29T11:46:02.354Z,30.79
2022-07-29T11:46:40.150Z,30.62
2022-07-29T11:47:40.052Z,30.38
2022-07-29T11:48:40.189Z,30.22
2022-07-29T11:49:39.902Z,30.23
2022-07-29T11:50:41.162Z,30.29
2022-07-29T11:51:56.785Z,30.32
2022-07-29T11:52:49.581Z,30.31
2022-07-29T11:53:40.884Z,30.37
2022-07-29T11:54:58.365Z,30.45
2022-07-29T11:56:03.360Z,30.54
2022-07-29T11:56:40.159Z,30.57
2022-07-29T11:57:39.961Z,30.58
2022-07-29T11:58:40.131Z,30.58
2022-07-29T11:59:39.876Z,30.49
2022-07-29T12:00:40.106Z,30.47
2022-07-29T12:01:39.854Z,30.43
2022-07-29T12:02:40.895Z,30.39
2022-07-29T12:03:39.895Z,30.32
2022-07-29T12:04:40.081Z,30.24
2022-07-29T12:06:01.805Z,30.16
2022-07-29T12:06:40.087Z,30.11
2022-07-29T12:07:41.293Z,30.07
2022-07-29T12:08:41.084Z,30.04
2022-07-29T12:09:40.317Z,30.00
2022-07-29T12:10:40.069Z,29.95
2022-07-29T12:11:39.869Z,29.90
2022-07-29T12:12:40.042Z,29.87
2022-07-29T12:13:39.786Z,29.78
2022-07-29T12:14:40.018Z,29.67
2022-07-29T12:16:02.375Z,29.65
2022-07-29T12:16:39.632Z,29.60
2022-07-29T12:17:39.839Z,29.42
2022-07-29T12:18:39.583Z,29.26
2022-07-29T12:19:39.834Z,29.19
2022-07-29T12:20:39.567Z,29.16
2022-07-29T12:21:39.803Z,29.08
2022-07-29T12:22:40.552Z,29.05
2022-07-29T12:23:39.783Z,29.06
2022-07-29T12:24:39.550Z,29.05
2022-07-29T12:26:00.905Z,29.11
2022-07-29T12:26:40.436Z,29.06
2022-07-29T12:27:40.255Z,29.05
2022-07-29T12:28:39.872Z,28.93
2022-07-29T12:29:40.234Z,28.93
2022-07-29T12:30:41.622Z,28.93
2022-07-29T12:31:43.806Z,28.92
2022-07-29T12:32:40.727Z,28.93
2022-07-29T12:33:39.394Z,28.95
2022-07-29T12:34:39.639Z,28.89
2022-07-29T12:36:06.961Z,28.83
2022-07-29T12:36:40.686Z,28.80
2022-07-29T12:37:41.226Z,28.77
2022-07-29T12:38:39.649Z,28.70
2022-07-29T12:39:39.405Z,28.67
2022-07-29T12:40:39.714Z,28.66
2022-07-29T12:41:39.387Z,28.58
2022-07-29T12:42:39.634Z,28.58
2022-07-29T12:43:39.362Z,28.54
2022-07-29T12:44:39.613Z,28.55
2022-07-29T12:46:01.494Z,28.62
2022-07-29T12:46:39.775Z,28.64
2022-07-29T12:47:39.367Z,28.67
2022-07-29T12:48:39.704Z,28.59
2022-07-29T12:49:39.359Z,28.52
2022-07-29T12:50:39.589Z,28.43
2022-07-29T12:51:39.316Z,28.36
2022-07-29T12:52:39.568Z,28.34
2022-07-29T12:53:39.305Z,28.31